Izumo Princess — SXMB — position and weather

sailwx.info

Track history (hours):
 
Tides and Currents Weather Stations Pressure Air Temp Water Temp Dewpoint Dewpoint Depression Visibility Wind Speed Wind Dir Waves Ship Positions

Izumo Princess

Last reported at 2017-Jan-12 16:26 UTC. Time now 2017-Jan-20 05:48 UTC.
Position N 44°30' E 037°52'.

Length 229 m; draft 13 m.

Type: Tanker. MMSI: 240611000.

Date/timePositionNaut miles runAvg speedWind from/ knotsBaromVisibWave heightAir tempDewpointWater temp
2017-Jan-12 16:26N 44°30' E 037°52'3 3.9
2017-Jan-12 15:33N 44°33' E 037°48'5 4.7
2017-Jan-12 14:33N 44°36' E 037°44'4 3.8
2017-Jan-12 13:33N 44°38' E 037°39'0 0.3
2017-Jan-12 12:23N 44°37' E 037°40'0 0.0
2017-Jan-12 11:32N 44°37' E 037°40'0 0.0
2017-Jan-12 10:32N 44°37' E 037°40'0 0.0
2017-Jan-12 09:32N 44°37' E 037°40'0 0.0
2017-Jan-12 08:32N 44°37' E 037°40'0 0.0
2017-Jan-12 07:32N 44°37' E 037°40'0 0.0
2017-Jan-12 06:32N 44°37' E 037°40'0 0.0
2017-Jan-12 05:32N 44°37' E 037°40'0 0.0
2017-Jan-12 04:32N 44°37' E 037°40'0 0.0
2017-Jan-12 03:14N 44°37' E 037°40'0 0.0
2017-Jan-12 02:32N 44°37' E 037°40'0 0.0
2017-Jan-12 00:17N 44°37' E 037°40'0 0.0
2017-Jan-11 23:26N 44°37' E 037°40'0 0.0
2017-Jan-11 22:26N 44°37' E 037°40'0 0.5
2017-Jan-11 21:33N 44°38' E 037°39'3 3.0
2017-Jan-11 20:33N 44°35' E 037°40'1 1.1
2017-Jan-11 19:33N 44°34' E 037°39'3 2.6
2017-Jan-11 18:33N 44°32' E 037°41'1 0.7
2017-Jan-11 17:33N 44°32' E 037°42'0 0.5
2017-Jan-11 16:33N 44°32' E 037°42'2 2.0
2017-Jan-11 15:33N 44°33' E 037°43'1 1.2
2017-Jan-11 14:33N 44°33' E 037°42'1 0.8
2017-Jan-11 13:33N 44°32' E 037°42'1 0.5
2017-Jan-11 12:33N 44°31' E 037°42'2 1.8
2017-Jan-11 11:34N 44°31' E 037°44'8 8.1
2017-Jan-11 10:33N 44°35' E 037°34'6 5.0
2017-Jan-11 09:21N 44°39' E 037°28'1 1.5
2017-Jan-11 08:33N 44°38' E 037°28'2 1.7
2017-Jan-11 07:33N 44°36' E 037°28'2 1.9
2017-Jan-11 06:33N 44°34' E 037°28'2 2.1
2017-Jan-11 05:33N 44°32' E 037°29'5 5.0
2017-Jan-11 04:33N 44°37' E 037°28'1 0.7
2017-Jan-11 02:32N 44°38' E 037°26'1 1.0
2017-Jan-11 01:33N 44°37' E 037°27'1 1.0
2017-Jan-11 00:25N 44°36' E 037°29'1 1.1
2017-Jan-10 23:22N 44°36' E 037°30'1 1.2
2017-Jan-10 22:29N 44°35' E 037°31'1 1.2
2017-Jan-10 21:33N 44°35' E 037°33'1 1.3
2017-Jan-10 20:33N 44°34' E 037°34'1 1.3
2017-Jan-10 19:33N 44°34' E 037°36'1 1.4
2017-Jan-10 18:33N 44°33' E 037°38'1 1.4
2017-Jan-10 17:33N 44°33' E 037°40'1 1.2
2017-Jan-10 16:33N 44°33' E 037°42'1 0.8
2017-Jan-10 15:33N 44°33' E 037°43'2 2.4
2017-Jan-10 14:33N 44°35' E 037°42'1 1.1
2017-Jan-10 13:33N 44°36' E 037°43'4 4.2
2017-Jan-10 12:33N 44°33' E 037°40'0 0.2
2017-Jan-10 11:33N 44°33' E 037°40'0 0.1
2017-Jan-10 10:33N 44°33' E 037°40'0 0.1
2017-Jan-10 09:33N 44°33' E 037°40'0 0.1
2017-Jan-10 08:33N 44°33' E 037°40'0 0.2
2017-Jan-10 07:33N 44°32' E 037°40'0 0.3
2017-Jan-10 06:33N 44°32' E 037°40'0 0.5
2017-Jan-10 05:33N 44°32' E 037°41'5 5.4
2017-Jan-10 04:33N 44°33' E 037°48'1 0.8
2017-Jan-10 03:33N 44°34' E 037°49'1 1.1
2017-Jan-10 02:33N 44°34' E 037°48'1 1.2
2017-Jan-10 01:33N 44°35' E 037°47'1 1.2
2017-Jan-10 00:33N 44°35' E 037°45'1 1.4
2017-Jan-09 23:33N 44°36' E 037°43'2 1.7
2017-Jan-09 22:33N 44°35' E 037°41'6 6.2
2017-Jan-09 21:33N 44°35' E 037°32'13 0.3
2017-Jan-08 03:04N 44°35' E 037°14'1 2.3
2017-Jan-08 02:33N 44°34' E 037°14'  
2017-Jan-05 00:17N 39°49' E 025°35'2 0.3
2017-Jan-04 17:34N 39°47' E 025°37'  
Track history (hours):
 
Tides and Currents Weather Stations Pressure Air Temp Water Temp Dewpoint Dewpoint Depression Visibility Wind Speed Wind Dir Waves Ship Positions

Izumo Princess

Last reported at 2017-Jan-12 16:26 UTC. Time now 2017-Jan-20 05:48 UTC.
Position N 44°30' E 037°52'.

Length 229 m; draft 13 m.

Type: Tanker. MMSI: 240611000.

Date/timePositionNaut miles runAvg speedWind from/ knotsBaromVisibWave heightAir tempDewpointWater temp
2017-Jan-12 16:26N 44°30' E 037°52'3 3.9
2017-Jan-12 15:33N 44°33' E 037°48'5 4.7
2017-Jan-12 14:33N 44°36' E 037°44'4 3.8
2017-Jan-12 13:33N 44°38' E 037°39'0 0.3
2017-Jan-12 12:23N 44°37' E 037°40'0 0.0
2017-Jan-12 11:32N 44°37' E 037°40'0 0.0
2017-Jan-12 10:32N 44°37' E 037°40'0 0.0
2017-Jan-12 09:32N 44°37' E 037°40'0 0.0
2017-Jan-12 08:32N 44°37' E 037°40'0 0.0
2017-Jan-12 07:32N 44°37' E 037°40'0 0.0
2017-Jan-12 06:32N 44°37' E 037°40'0 0.0
2017-Jan-12 05:32N 44°37' E 037°40'0 0.0
2017-Jan-12 04:32N 44°37' E 037°40'0 0.0
2017-Jan-12 03:14N 44°37' E 037°40'0 0.0
2017-Jan-12 02:32N 44°37' E 037°40'0 0.0
2017-Jan-12 00:17N 44°37' E 037°40'0 0.0
2017-Jan-11 23:26N 44°37' E 037°40'0 0.0
2017-Jan-11 22:26N 44°37' E 037°40'0 0.5
2017-Jan-11 21:33N 44°38' E 037°39'3 3.0
2017-Jan-11 20:33N 44°35' E 037°40'1 1.1
2017-Jan-11 19:33N 44°34' E 037°39'3 2.6
2017-Jan-11 18:33N 44°32' E 037°41'1 0.7
2017-Jan-11 17:33N 44°32' E 037°42'0 0.5
2017-Jan-11 16:33N 44°32' E 037°42'2 2.0
2017-Jan-11 15:33N 44°33' E 037°43'1 1.2
2017-Jan-11 14:33N 44°33' E 037°42'1 0.8
2017-Jan-11 13:33N 44°32' E 037°42'1 0.5
2017-Jan-11 12:33N 44°31' E 037°42'2 1.8
2017-Jan-11 11:34N 44°31' E 037°44'8 8.1
2017-Jan-11 10:33N 44°35' E 037°34'6 5.0
2017-Jan-11 09:21N 44°39' E 037°28'1 1.5
2017-Jan-11 08:33N 44°38' E 037°28'2 1.7
2017-Jan-11 07:33N 44°36' E 037°28'2 1.9
2017-Jan-11 06:33N 44°34' E 037°28'2 2.1
2017-Jan-11 05:33N 44°32' E 037°29'5 5.0
2017-Jan-11 04:33N 44°37' E 037°28'1 0.7
2017-Jan-11 02:32N 44°38' E 037°26'1 1.0
2017-Jan-11 01:33N 44°37' E 037°27'1 1.0
2017-Jan-11 00:25N 44°36' E 037°29'1 1.1
2017-Jan-10 23:22N 44°36' E 037°30'1 1.2
2017-Jan-10 22:29N 44°35' E 037°31'1 1.2
2017-Jan-10 21:33N 44°35' E 037°33'1 1.3
2017-Jan-10 20:33N 44°34' E 037°34'1 1.3
2017-Jan-10 19:33N 44°34' E 037°36'1 1.4
2017-Jan-10 18:33N 44°33' E 037°38'1 1.4
2017-Jan-10 17:33N 44°33' E 037°40'1 1.2
2017-Jan-10 16:33N 44°33' E 037°42'1 0.8
2017-Jan-10 15:33N 44°33' E 037°43'2 2.4
2017-Jan-10 14:33N 44°35' E 037°42'1 1.1
2017-Jan-10 13:33N 44°36' E 037°43'4 4.2
2017-Jan-10 12:33N 44°33' E 037°40'0 0.2
2017-Jan-10 11:33N 44°33' E 037°40'0 0.1
2017-Jan-10 10:33N 44°33' E 037°40'0 0.1
2017-Jan-10 09:33N 44°33' E 037°40'0 0.1
2017-Jan-10 08:33N 44°33' E 037°40'0 0.2
2017-Jan-10 07:33N 44°32' E 037°40'0 0.3
2017-Jan-10 06:33N 44°32' E 037°40'0 0.5
2017-Jan-10 05:33N 44°32' E 037°41'5 5.4
2017-Jan-10 04:33N 44°33' E 037°48'1 0.8
2017-Jan-10 03:33N 44°34' E 037°49'1 1.1
2017-Jan-10 02:33N 44°34' E 037°48'1 1.2
2017-Jan-10 01:33N 44°35' E 037°47'1 1.2
2017-Jan-10 00:33N 44°35' E 037°45'1 1.4
2017-Jan-09 23:33N 44°36' E 037°43'2 1.7
2017-Jan-09 22:33N 44°35' E 037°41'6 6.2
2017-Jan-09 21:33N 44°35' E 037°32'13 0.3
2017-Jan-08 03:04N 44°35' E 037°14'1 2.3
2017-Jan-08 02:33N 44°34' E 037°14'  
2017-Jan-05 00:17N 39°49' E 025°35'2 0.3
2017-Jan-04 17:34N 39°47' E 025°37'  

Dump ship's entire track history